sensor_id;sensor_type;location;lat;lon;timestamp;pressure;altitude;pressure_sealevel;temperature;humidity
3142;BME280;1581;51.568;6.998;2023-02-21T00:01:40;101348.94;;;9.12;100.00
3142;BME280;1581;51.568;6.998;2023-02-21T00:04:25;101346.91;;;9.06;100.00
3142;BME280;1581;51.568;6.998;2023-02-21T00:07:10;101346.28;;;9.28;100.00
3142;BME280;1581;51.568;6.998;2023-02-21T00:09:55;101337.97;;;9.23;100.00
3142;BME280;1581;51.568;6.998;2023-02-21T00:12:40;101337.28;;;9.37;100.00
3142;BME280;1581;51.568;6.998;2023-02-21T00:15:26;101336.75;;;9.02;100.00
3142;BME280;1581;51.568;6.998;2023-02-21T00:18:11;101335.59;;;9.04;100.00
3142;BME280;1581;51.568;6.998;2023-02-21T00:20:56;101340.41;;;9.01;100.00
3142;BME280;1581;51.568;6.998;2023-02-21T00:23:42;101345.44;;;9.28;100.00
3142;BME280;1581;51.568;6.998;2023-02-21T00:26:26;101347.41;;;9.10;100.00
3142;BME280;1581;51.568;6.998;2023-02-21T00:29:12;101342.94;;;9.10;100.00
3142;BME280;1581;51.568;6.998;2023-02-21T00:31:58;101337.63;;;9.10;100.00
3142;BME280;1581;51.568;6.998;2023-02-21T00:34:43;101348.94;;;9.28;100.00
3142;BME280;1581;51.568;6.998;2023-02-21T00:37:28;101351.91;;;9.17;100.00
3142;BME280;1581;51.568;6.998;2023-02-21T00:40:14;101354.38;;;8.87;100.00
3142;BME280;1581;51.568;6.998;2023-02-21T00:43:00;101351.53;;;8.88;100.00
3142;BME280;1581;51.568;6.998;2023-02-21T00:45:45;101353.56;;;9.10;100.00
3142;BME280;1581;51.568;6.998;2023-02-21T00:48:31;101350.22;;;9.00;100.00
3142;BME280;1581;51.568;6.998;2023-02-21T00:51:16;101340.78;;;9.22;100.00
3142;BME280;1581;51.568;6.998;2023-02-21T00:54:02;101339.28;;;9.11;100.00
3142;BME280;1581;51.568;6.998;2023-02-21T00:56:47;101345.91;;;9.15;100.00
3142;BME280;1581;51.568;6.998;2023-02-21T00:59:32;101328.78;;;9.10;100.00
3142;BME280;1581;51.568;6.998;2023-02-21T01:02:17;101322.81;;;9.00;100.00
3142;BME280;1581;51.568;6.998;2023-02-21T01:05:04;101324.16;;;9.12;100.00
3142;BME280;1581;51.568;6.998;2023-02-21T01:07:50;101318.00;;;9.03;100.00
3142;BME280;1581;51.568;6.998;2023-02-21T01:10:35;101326.13;;;8.94;100.00
3142;BME280;1581;51.568;6.998;2023-02-21T01:13:20;101315.31;;;8.95;100.00
3142;BME280;1581;51.568;6.998;2023-02-21T01:16:06;101317.16;;;9.11;100.00
3142;BME280;1581;51.568;6.998;2023-02-21T01:18:52;101312.53;;;8.97;100.00
3142;BME280;1581;51.568;6.998;2023-02-21T01:21:38;101315.81;;;8.99;100.00
3142;BME280;1581;51.568;6.998;2023-02-21T01:24:23;101319.97;;;8.85;100.00
3142;BME280;1581;51.568;6.998;2023-02-21T01:27:08;101318.84;;;8.96;100.00
3142;BME280;1581;51.568;6.998;2023-02-21T01:29:53;101318.66;;;8.89;100.00
3142;BME280;1581;51.568;6.998;2023-02-21T01:32:38;101316.84;;;9.06;100.00
3142;BME280;1581;51.568;6.998;2023-02-21T01:35:23;101309.69;;;9.06;100.00
3142;BME280;1581;51.568;6.998;2023-02-21T01:38:10;101308.53;;;9.01;100.00
3142;BME280;1581;51.568;6.998;2023-02-21T01:40:55;101303.19;;;9.09;100.00
3142;BME280;1581;51.568;6.998;2023-02-21T01:43:58;101303.19;;;8.93;100.00
3142;BME280;1581;51.568;6.998;2023-02-21T01:46:43;101304.22;;;9.24;100.00
3142;BME280;1581;51.568;6.998;2023-02-21T01:49:28;101303.69;;;9.44;100.00
3142;BME280;1581;51.568;6.998;2023-02-21T01:52:13;101303.38;;;8.99;100.00
3142;BME280;1581;51.568;6.998;2023-02-21T01:55:00;101301.56;;;9.16;100.00
3142;BME280;1581;51.568;6.998;2023-02-21T01:57:45;101302.06;;;9.03;100.00
3142;BME280;1581;51.568;6.998;2023-02-21T02:00:31;101304.72;;;9.03;100.00
3142;BME280;1581;51.568;6.998;2023-02-21T02:03:19;101294.72;;;8.89;100.00
3142;BME280;1581;51.568;6.998;2023-02-21T02:06:07;101300.88;;;8.90;100.00
3142;BME280;1581;51.568;6.998;2023-02-21T02:08:53;101306.03;;;8.99;100.00
3142;BME280;1581;51.568;6.998;2023-02-21T02:12:07;101301.06;;;9.12;100.00
3142;BME280;1581;51.568;6.998;2023-02-21T02:18:06;101309.38;;;8.93;100.00
3142;BME280;1581;51.568;6.998;2023-02-21T02:24:25;101297.72;;;8.94;100.00
3142;BME280;1581;51.568;6.998;2023-02-21T02:31:02;101294.06;;;8.95;100.00
3142;BME280;1581;51.568;6.998;2023-02-21T02:34:37;101283.25;;;8.73;100.00
3142;BME280;1581;51.568;6.998;2023-02-21T02:37:13;101281.75;;;8.94;100.00
3142;BME280;1581;51.568;6.998;2023-02-21T02:39:50;101275.44;;;8.95;100.00
3142;BME280;1581;51.568;6.998;2023-02-21T02:42:32;101279.28;;;8.85;100.00
3142;BME280;1581;51.568;6.998;2023-02-21T02:45:12;101274.94;;;9.00;100.00
3142;BME280;1581;51.568;6.998;2023-02-21T02:47:43;101281.09;;;8.84;100.00
3142;BME280;1581;51.568;6.998;2023-02-21T02:50:14;101291.06;;;8.90;100.00
3142;BME280;1581;51.568;6.998;2023-02-21T02:52:50;101286.56;;;8.83;100.00
3142;BME280;1581;51.568;6.998;2023-02-21T02:55:31;101298.06;;;8.91;100.00
3142;BME280;1581;51.568;6.998;2023-02-21T02:58:01;101293.06;;;9.04;100.00
3142;BME280;1581;51.568;6.998;2023-02-21T03:00:31;101289.91;;;9.09;100.00
3142;BME280;1581;51.568;6.998;2023-02-21T03:03:28;101282.59;;;8.87;100.00
3142;BME280;1581;51.568;6.998;2023-02-21T03:06:16;101286.72;;;8.73;100.00
3142;BME280;1581;51.568;6.998;2023-02-21T03:08:55;101280.56;;;8.57;100.00
3142;BME280;1581;51.568;6.998;2023-02-21T03:11:26;101287.88;;;8.71;100.00
3142;BME280;1581;51.568;6.998;2023-02-21T03:13:57;101284.03;;;8.65;100.00
3142;BME280;1581;51.568;6.998;2023-02-21T03:16:41;101279.78;;;8.88;100.00
3142;BME280;1581;51.568;6.998;2023-02-21T03:19:17;101289.53;;;8.72;100.00
3142;BME280;1581;51.568;6.998;2023-02-21T03:21:53;101276.09;;;8.73;100.00
3142;BME280;1581;51.568;6.998;2023-02-21T03:24:23;101283.75;;;8.84;100.00
3142;BME280;1581;51.568;6.998;2023-02-21T03:26:56;101281.63;;;9.04;100.00
3142;BME280;1581;51.568;6.998;2023-02-21T03:29:26;101281.78;;;9.02;100.00
3142;BME280;1581;51.568;6.998;2023-02-21T03:31:59;101287.59;;;9.06;100.00
3142;BME280;1581;51.568;6.998;2023-02-21T03:34:36;101291.75;;;9.08;100.00
3142;BME280;1581;51.568;6.998;2023-02-21T03:37:08;101286.75;;;8.81;100.00
3142;BME280;1581;51.568;6.998;2023-02-21T03:39:37;101285.44;;;9.01;100.00
3142;BME280;1581;51.568;6.998;2023-02-21T03:42:06;101284.91;;;8.74;100.00
3142;BME280;1581;51.568;6.998;2023-02-21T03:44:34;101283.44;;;8.87;100.00
3142;BME280;1581;51.568;6.998;2023-02-21T03:47:03;101282.28;;;8.98;100.00
3142;BME280;1581;51.568;6.998;2023-02-21T03:49:30;101284.09;;;8.89;100.00
3142;BME280;1581;51.568;6.998;2023-02-21T03:51:58;101278.78;;;8.89;100.00
3142;BME280;1581;51.568;6.998;2023-02-21T03:54:27;101276.13;;;8.81;100.00
3142;BME280;1581;51.568;6.998;2023-02-21T03:56:55;101283.78;;;9.00;100.00
3142;BME280;1581;51.568;6.998;2023-02-21T03:59:22;101278.09;;;8.87;100.00
3142;BME280;1581;51.568;6.998;2023-02-21T04:01:50;101282.06;;;8.75;100.00
3142;BME280;1581;51.568;6.998;2023-02-21T04:04:17;101283.44;;;8.95;100.00
3142;BME280;1581;51.568;6.998;2023-02-21T04:06:45;101286.56;;;8.83;100.00
3142;BME280;1581;51.568;6.998;2023-02-21T04:09:13;101289.25;;;8.83;100.00
3142;BME280;1581;51.568;6.998;2023-02-21T04:11:44;101290.09;;;8.91;100.00
3142;BME280;1581;51.568;6.998;2023-02-21T04:14:12;101287.75;;;8.80;100.00
3142;BME280;1581;51.568;6.998;2023-02-21T04:16:40;101289.72;;;8.94;100.00
3142;BME280;1581;51.568;6.998;2023-02-21T04:19:09;101289.41;;;8.89;100.00
3142;BME280;1581;51.568;6.998;2023-02-21T04:21:36;101292.06;;;8.81;100.00
3142;BME280;1581;51.568;6.998;2023-02-21T04:24:04;101290.41;;;8.88;100.00
3142;BME280;1581;51.568;6.998;2023-02-21T04:26:32;101288.25;;;8.84;100.00
3142;BME280;1581;51.568;6.998;2023-02-21T04:29:02;101285.09;;;8.88;100.00
3142;BME280;1581;51.568;6.998;2023-02-21T04:31:30;101283.09;;;8.90;100.00
3142;BME280;1581;51.568;6.998;2023-02-21T04:33:59;101274.09;;;8.75;100.00
3142;BME280;1581;51.568;6.998;2023-02-21T04:36:27;101280.91;;;8.70;100.00
3142;BME280;1581;51.568;6.998;2023-02-21T04:38:55;101288.22;;;8.68;100.00
3142;BME280;1581;51.568;6.998;2023-02-21T04:41:23;101289.41;;;9.05;100.00
3142;BME280;1581;51.568;6.998;2023-02-21T04:43:51;101291.75;;;8.92;100.00
3142;BME280;1581;51.568;6.998;2023-02-21T04:46:20;101283.41;;;8.79;100.00
3142;BME280;1581;51.568;6.998;2023-02-21T04:48:50;101280.09;;;8.77;100.00
3142;BME280;1581;51.568;6.998;2023-02-21T04:51:21;101277.75;;;8.66;100.00
3142;BME280;1581;51.568;6.998;2023-02-21T04:53:51;101276.94;;;8.74;100.00
3142;BME280;1581;51.568;6.998;2023-02-21T04:56:20;101273.44;;;8.73;100.00
3142;BME280;1581;51.568;6.998;2023-02-21T04:58:49;101266.97;;;8.68;100.00
3142;BME280;1581;51.568;6.998;2023-02-21T05:01:20;101272.97;;;9.02;100.00
3142;BME280;1581;51.568;6.998;2023-02-21T05:03:50;101261.53;;;8.93;100.00
3142;BME280;1581;51.568;6.998;2023-02-21T05:06:19;101263.47;;;8.83;100.00
3142;BME280;1581;51.568;6.998;2023-02-21T05:08:47;101273.78;;;8.86;100.00
3142;BME280;1581;51.568;6.998;2023-02-21T05:11:15;101274.28;;;8.90;100.00
3142;BME280;1581;51.568;6.998;2023-02-21T05:13:44;101268.66;;;8.85;100.00
3142;BME280;1581;51.568;6.998;2023-02-21T05:16:12;101267.13;;;8.74;100.00
3142;BME280;1581;51.568;6.998;2023-02-21T05:18:43;101268.16;;;8.89;100.00
3142;BME280;1581;51.568;6.998;2023-02-21T05:21:11;101276.09;;;8.73;100.00
3142;BME280;1581;51.568;6.998;2023-02-21T05:23:39;101274.47;;;8.80;100.00
3142;BME280;1581;51.568;6.998;2023-02-21T05:26:11;101276.44;;;8.86;100.00
3142;BME280;1581;51.568;6.998;2023-02-21T05:28:39;101272.09;;;8.61;100.00
3142;BME280;1581;51.568;6.998;2023-02-21T05:31:07;101273.09;;;8.53;100.00
3142;BME280;1581;51.568;6.998;2023-02-21T05:33:35;101275.09;;;8.66;100.00
3142;BME280;1581;51.568;6.998;2023-02-21T05:36:06;101286.25;;;8.86;100.00
3142;BME280;1581;51.568;6.998;2023-02-21T05:38:44;101275.75;;;8.68;100.00
3142;BME280;1581;51.568;6.998;2023-02-21T05:41:12;101272.47;;;8.82;100.00
3142;BME280;1581;51.568;6.998;2023-02-21T05:43:43;101273.41;;;8.65;100.00
3142;BME280;1581;51.568;6.998;2023-02-21T05:46:19;101273.09;;;8.60;100.00
3142;BME280;1581;51.568;6.998;2023-02-21T05:48:47;101272.31;;;8.92;100.00
3142;BME280;1581;51.568;6.998;2023-02-21T05:51:16;101270.44;;;8.68;100.00
3142;BME280;1581;51.568;6.998;2023-02-21T05:53:45;101278.09;;;8.95;100.00
3142;BME280;1581;51.568;6.998;2023-02-21T05:56:13;101284.72;;;8.75;100.00
3142;BME280;1581;51.568;6.998;2023-02-21T05:58:41;101280.28;;;8.84;100.00
3142;BME280;1581;51.568;6.998;2023-02-21T06:01:09;101279.78;;;8.96;100.00
3142;BME280;1581;51.568;6.998;2023-02-21T06:03:37;101273.25;;;8.59;100.00
3142;BME280;1581;51.568;6.998;2023-02-21T06:06:05;101268.78;;;8.59;100.00
3142;BME280;1581;51.568;6.998;2023-02-21T06:08:42;101277.50;;;8.36;100.00
3142;BME280;1581;51.568;6.998;2023-02-21T06:11:10;101274.53;;;8.39;100.00
3142;BME280;1581;51.568;6.998;2023-02-21T06:13:38;101272.03;;;8.38;100.00
3142;BME280;1581;51.568;6.998;2023-02-21T06:16:06;101269.56;;;8.36;100.00
3142;BME280;1581;51.568;6.998;2023-02-21T06:18:34;101272.56;;;8.49;100.00
3142;BME280;1581;51.568;6.998;2023-02-21T06:21:02;101265.41;;;8.42;100.00
3142;BME280;1581;51.568;6.998;2023-02-21T06:23:30;101265.22;;;8.27;100.00
3142;BME280;1581;51.568;6.998;2023-02-21T06:25:59;101262.50;;;8.19;100.00
3142;BME280;1581;51.568;6.998;2023-02-21T06:28:28;101264.56;;;8.33;100.00
3142;BME280;1581;51.568;6.998;2023-02-21T06:30:56;101265.91;;;8.45;100.00
3142;BME280;1581;51.568;6.998;2023-02-21T06:33:24;101263.25;;;8.37;100.00
3142;BME280;1581;51.568;6.998;2023-02-21T06:35:52;101262.03;;;8.24;100.00
3142;BME280;1581;51.568;6.998;2023-02-21T06:38:19;101263.34;;;8.20;100.00
3142;BME280;1581;51.568;6.998;2023-02-21T06:40:47;101263.34;;;8.20;100.00
3142;BME280;1581;51.568;6.998;2023-02-21T06:43:16;101269.47;;;8.20;100.00
3142;BME280;1581;51.568;6.998;2023-02-21T06:45:44;101263.28;;;8.12;100.00
3142;BME280;1581;51.568;6.998;2023-02-21T06:48:14;101271.81;;;8.23;100.00
3142;BME280;1581;51.568;6.998;2023-02-21T06:50:43;101268.72;;;8.02;100.00
3142;BME280;1581;51.568;6.998;2023-02-21T06:53:10;101267.50;;;8.22;100.00
3142;BME280;1581;51.568;6.998;2023-02-21T06:55:38;101265.78;;;8.13;100.00
3142;BME280;1581;51.568;6.998;2023-02-21T06:58:07;101274.22;;;8.09;100.00
3142;BME280;1581;51.568;6.998;2023-02-21T07:00:37;101269.22;;;8.06;100.00
3142;BME280;1581;51.568;6.998;2023-02-21T07:03:05;101279.53;;;8.09;100.00
3142;BME280;1581;51.568;6.998;2023-02-21T07:05:32;101286.09;;;8.30;100.00
3142;BME280;1581;51.568;6.998;2023-02-21T07:08:02;101288.00;;;8.12;100.00
3142;BME280;1581;51.568;6.998;2023-02-21T07:10:30;101282.63;;;8.30;100.00
3142;BME280;1581;51.568;6.998;2023-02-21T07:12:58;101281.72;;;8.13;100.00
3142;BME280;1581;51.568;6.998;2023-02-21T07:15:26;101279.31;;;8.28;100.00
3142;BME280;1581;51.568;6.998;2023-02-21T07:17:55;101282.34;;;8.07;100.00
3142;BME280;1581;51.568;6.998;2023-02-21T07:20:22;101283.44;;;8.22;100.00
3142;BME280;1581;51.568;6.998;2023-02-21T07:22:50;101279.44;;;8.18;100.00
3142;BME280;1581;51.568;6.998;2023-02-21T07:25:21;101283.91;;;8.18;100.00
3142;BME280;1581;51.568;6.998;2023-02-21T07:27:49;101277.38;;;8.12;100.00
3142;BME280;1581;51.568;6.998;2023-02-21T07:30:18;101276.00;;;8.34;100.00
3142;BME280;1581;51.568;6.998;2023-02-21T07:32:45;101276.31;;;8.23;100.00
3142;BME280;1581;51.568;6.998;2023-02-21T07:35:15;101280.28;;;8.19;100.00
3142;BME280;1581;51.568;6.998;2023-02-21T07:37:42;101281.03;;;8.11;100.00
3142;BME280;1581;51.568;6.998;2023-02-21T07:40:10;101284.97;;;8.33;100.00
3142;BME280;1581;51.568;6.998;2023-02-21T07:42:41;101281.47;;;8.24;100.00
3142;BME280;1581;51.568;6.998;2023-02-21T07:45:09;101287.78;;;8.31;100.00
3142;BME280;1581;51.568;6.998;2023-02-21T07:47:37;101286.25;;;8.21;100.00
3142;BME280;1581;51.568;6.998;2023-02-21T07:50:06;101295.31;;;8.52;100.00
3142;BME280;1581;51.568;6.998;2023-02-21T07:52:35;101299.59;;;8.11;100.00
3142;BME280;1581;51.568;6.998;2023-02-21T07:55:03;101295.78;;;8.14;100.00
3142;BME280;1581;51.568;6.998;2023-02-21T07:57:31;101302.88;;;8.23;100.00
3142;BME280;1581;51.568;6.998;2023-02-21T07:59:59;101296.44;;;8.41;100.00
3142;BME280;1581;51.568;6.998;2023-02-21T08:02:27;101285.28;;;8.30;100.00
3142;BME280;1581;51.568;6.998;2023-02-21T08:04:54;101293.94;;;8.40;100.00
3142;BME280;1581;51.568;6.998;2023-02-21T08:07:22;101295.22;;;8.20;100.00
3142;BME280;1581;51.568;6.998;2023-02-21T08:09:51;101304.59;;;8.14;100.00
3142;BME280;1581;51.568;6.998;2023-02-21T08:12:19;101293.72;;;8.17;100.00
3142;BME280;1581;51.568;6.998;2023-02-21T08:14:47;101294.78;;;8.07;100.00
3142;BME280;1581;51.568;6.998;2023-02-21T08:17:15;101298.19;;;8.17;100.00
3142;BME280;1581;51.568;6.998;2023-02-21T08:19:42;101302.44;;;8.43;100.00
3142;BME280;1581;51.568;6.998;2023-02-21T08:22:10;101300.13;;;8.48;100.00
3142;BME280;1581;51.568;6.998;2023-02-21T08:24:38;101313.56;;;8.13;100.00
3142;BME280;1581;51.568;6.998;2023-02-21T08:27:07;101305.69;;;8.29;100.00
3142;BME280;1581;51.568;6.998;2023-02-21T08:29:35;101306.38;;;8.31;100.00
3142;BME280;1581;51.568;6.998;2023-02-21T08:32:03;101311.09;;;8.61;100.00
3142;BME280;1581;51.568;6.998;2023-02-21T08:34:31;101315.69;;;8.35;100.00
3142;BME280;1581;51.568;6.998;2023-02-21T08:36:59;101312.06;;;8.11;100.00
3142;BME280;1581;51.568;6.998;2023-02-21T08:39:27;101309.78;;;8.16;100.00
3142;BME280;1581;51.568;6.998;2023-02-21T08:41:56;101300.94;;;8.07;100.00
3142;BME280;1581;51.568;6.998;2023-02-21T08:44:26;101302.75;;;8.40;100.00
3142;BME280;1581;51.568;6.998;2023-02-21T08:46:53;101293.31;;;8.53;100.00
3142;BME280;1581;51.568;6.998;2023-02-21T08:49:21;101293.66;;;8.51;100.00
3142;BME280;1581;51.568;6.998;2023-02-21T08:51:49;101291.63;;;8.45;100.00
3142;BME280;1581;51.568;6.998;2023-02-21T08:54:17;101294.94;;;8.39;100.00
3142;BME280;1581;51.568;6.998;2023-02-21T08:56:45;101283.66;;;8.37;100.00
3142;BME280;1581;51.568;6.998;2023-02-21T08:59:14;101288.19;;;8.11;100.00
3142;BME280;1581;51.568;6.998;2023-02-21T09:01:43;101295.28;;;8.10;100.00
3142;BME280;1581;51.568;6.998;2023-02-21T09:04:10;101296.03;;;8.20;100.00
3142;BME280;1581;51.568;6.998;2023-02-21T09:06:38;101288.00;;;8.53;100.00
3142;BME280;1581;51.568;6.998;2023-02-21T09:09:06;101294.44;;;8.35;100.00
3142;BME280;1581;51.568;6.998;2023-02-21T09:11:34;101289.00;;;8.11;100.00
3142;BME280;1581;51.568;6.998;2023-02-21T09:14:02;101290.56;;;8.22;100.00
3142;BME280;1581;51.568;6.998;2023-02-21T09:16:31;101294.47;;;8.51;100.00
3142;BME280;1581;51.568;6.998;2023-02-21T09:19:00;101288.66;;;8.40;100.00
3142;BME280;1581;51.568;6.998;2023-02-21T09:21:27;101286.31;;;8.45;100.00
3142;BME280;1581;51.568;6.998;2023-02-21T09:23:58;101290.44;;;8.39;100.00
3142;BME280;1581;51.568;6.998;2023-02-21T09:26:28;101284.34;;;8.54;100.00
3142;BME280;1581;51.568;6.998;2023-02-21T09:28:58;101285.19;;;8.47;100.00
3142;BME280;1581;51.568;6.998;2023-02-21T09:31:26;101286.22;;;8.70;100.00
3142;BME280;1581;51.568;6.998;2023-02-21T09:33:53;101279.38;;;8.52;100.00
3142;BME280;1581;51.568;6.998;2023-02-21T09:36:23;101279.59;;;8.66;100.00
3142;BME280;1581;51.568;6.998;2023-02-21T09:38:52;101279.09;;;8.78;100.00
3142;BME280;1581;51.568;6.998;2023-02-21T09:41:20;101283.06;;;8.66;100.00
3142;BME280;1581;51.568;6.998;2023-02-21T09:43:51;101285.03;;;8.56;100.00
3142;BME280;1581;51.568;6.998;2023-02-21T09:46:29;101288.69;;;8.55;100.00
3142;BME280;1581;51.568;6.998;2023-02-21T09:49:01;101284.34;;;8.54;100.00
3142;BME280;1581;51.568;6.998;2023-02-21T09:51:32;101280.38;;;8.51;100.00
3142;BME280;1581;51.568;6.998;2023-02-21T09:54:16;101280.06;;;8.61;100.00
3142;BME280;1581;51.568;6.998;2023-02-21T09:56:45;101280.22;;;8.60;100.00
3142;BME280;1581;51.568;6.998;2023-02-21T09:59:14;101283.13;;;8.33;100.00
3142;BME280;1581;51.568;6.998;2023-02-21T10:02:00;101272.25;;;8.60;100.00
3142;BME280;1581;51.568;6.998;2023-02-21T10:04:41;101277.44;;;8.69;100.00
3142;BME280;1581;51.568;6.998;2023-02-21T10:07:21;101275.75;;;8.76;100.00
3142;BME280;1581;51.568;6.998;2023-02-21T10:09:58;101282.91;;;8.76;100.00
3142;BME280;1581;51.568;6.998;2023-02-21T10:12:35;101279.09;;;8.78;100.00
3142;BME280;1581;51.568;6.998;2023-02-21T10:15:35;101281.38;;;8.65;100.00
3142;BME280;1581;51.568;6.998;2023-02-21T10:18:12;101287.00;;;8.54;100.00
3142;BME280;1581;51.568;6.998;2023-02-21T10:20:47;101282.06;;;8.67;100.00
3142;BME280;1581;51.568;6.998;2023-02-21T10:23:22;101286.25;;;8.78;100.00
3142;BME280;1581;51.568;6.998;2023-02-21T10:25:58;101282.13;;;8.99;100.00
3142;BME280;1581;51.568;6.998;2023-02-21T10:28:28;101286.13;;;9.03;100.00
3142;BME280;1581;51.568;6.998;2023-02-21T10:30:58;101289.72;;;8.94;100.00
3142;BME280;1581;51.568;6.998;2023-02-21T10:33:28;101284.75;;;8.83;100.00
3142;BME280;1581;51.568;6.998;2023-02-21T10:35:57;101286.75;;;8.97;100.00
3142;BME280;1581;51.568;6.998;2023-02-21T10:38:26;101284.59;;;8.85;100.00
3142;BME280;1581;51.568;6.998;2023-02-21T10:40:56;101287.78;;;9.12;100.00
3142;BME280;1581;51.568;6.998;2023-02-21T10:43:30;101284.94;;;9.06;100.00
3142;BME280;1581;51.568;6.998;2023-02-21T10:46:07;101287.44;;;9.23;100.00
3142;BME280;1581;51.568;6.998;2023-02-21T10:48:38;101285.41;;;8.77;100.00
3142;BME280;1581;51.568;6.998;2023-02-21T10:51:10;101293.56;;;9.00;100.00
3142;BME280;1581;51.568;6.998;2023-02-21T10:53:41;101294.91;;;8.96;100.00
3142;BME280;1581;51.568;6.998;2023-02-21T10:56:27;101291.03;;;8.74;100.00
3142;BME280;1581;51.568;6.998;2023-02-21T10:59:01;101283.91;;;8.99;100.00
3142;BME280;1581;51.568;6.998;2023-02-21T11:01:36;101285.44;;;9.25;100.00
3142;BME280;1581;51.568;6.998;2023-02-21T11:04:06;101292.06;;;8.97;100.00
3142;BME280;1581;51.568;6.998;2023-02-21T11:06:51;101287.59;;;9.22;100.00
3142;BME280;1581;51.568;6.998;2023-02-21T11:09:36;101285.44;;;9.17;100.00
3142;BME280;1581;51.568;6.998;2023-02-21T11:12:17;101284.59;;;9.40;100.00
3142;BME280;1581;51.568;6.998;2023-02-21T11:15:16;101290.09;;;9.39;100.00
3142;BME280;1581;51.568;6.998;2023-02-21T11:17:44;101284.44;;;9.42;100.00
3142;BME280;1581;51.568;6.998;2023-02-21T11:20:19;101277.59;;;9.55;100.00
3142;BME280;1581;51.568;6.998;2023-02-21T11:22:49;101278.78;;;9.37;100.00
3142;BME280;1581;51.568;6.998;2023-02-21T11:25:24;101278.41;;;9.56;100.00
3142;BME280;1581;51.568;6.998;2023-02-21T11:28:04;101273.81;;;9.18;100.00
3142;BME280;1581;51.568;6.998;2023-02-21T11:30:35;101271.66;;;9.38;100.00
3142;BME280;1581;51.568;6.998;2023-02-21T11:33:04;101275.47;;;9.19;100.00
3142;BME280;1581;51.568;6.998;2023-02-21T11:35:36;101274.47;;;9.04;100.00
3142;BME280;1581;51.568;6.998;2023-02-21T11:38:08;101262.50;;;9.40;100.00
3142;BME280;1581;51.568;6.998;2023-02-21T11:40:56;101267.78;;;9.48;100.00
3142;BME280;1581;51.568;6.998;2023-02-21T11:43:26;101269.97;;;9.37;100.00
3142;BME280;1581;51.568;6.998;2023-02-21T11:46:09;101259.91;;;9.70;100.00
3142;BME280;1581;51.568;6.998;2023-02-21T11:48:46;101260.63;;;9.64;100.00
3142;BME280;1581;51.568;6.998;2023-02-21T11:51:26;101260.44;;;9.66;100.00
3142;BME280;1581;51.568;6.998;2023-02-21T11:53:56;101265.69;;;9.90;100.00
3142;BME280;1581;51.568;6.998;2023-02-21T11:56:48;101258.47;;;9.44;100.00
3142;BME280;1581;51.568;6.998;2023-02-21T11:59:31;101260.50;;;9.42;100.00
3142;BME280;1581;51.568;6.998;2023-02-21T12:02:34;101250.47;;;9.60;100.00
3142;BME280;1581;51.568;6.998;2023-02-21T12:08:25;101255.94;;;9.74;100.00
3142;BME280;1581;51.568;6.998;2023-02-21T12:11:12;101239.13;;;9.82;100.00
3142;BME280;1581;51.568;6.998;2023-02-21T12:13:55;101247.03;;;9.98;100.00
3142;BME280;1581;51.568;6.998;2023-02-21T12:16:40;101238.47;;;9.64;100.00
3142;BME280;1581;51.568;6.998;2023-02-21T12:19:26;101241.66;;;10.14;100.00
3142;BME280;1581;51.568;6.998;2023-02-21T12:22:18;101235.00;;;10.48;100.00
3142;BME280;1581;51.568;6.998;2023-02-21T12:25:02;101238.13;;;10.21;100.00
3142;BME280;1581;51.568;6.998;2023-02-21T12:27:43;101234.56;;;10.06;100.00
3142;BME280;1581;51.568;6.998;2023-02-21T12:30:26;101230.16;;;10.51;100.00
3142;BME280;1581;51.568;6.998;2023-02-21T12:33:15;101233.34;;;10.47;100.00
3142;BME280;1581;51.568;6.998;2023-02-21T12:36:25;101214.09;;;10.59;100.00
3142;BME280;1581;51.568;6.998;2023-02-21T12:39:08;101215.97;;;10.96;100.00
3142;BME280;1581;51.568;6.998;2023-02-21T12:41:59;101217.09;;;10.56;100.00
3142;BME280;1581;51.568;6.998;2023-02-21T12:44:36;101212.31;;;10.52;100.00
3142;BME280;1581;51.568;6.998;2023-02-21T12:47:15;101212.03;;;10.47;100.00
3142;BME280;1581;51.568;6.998;2023-02-21T12:49:49;101208.00;;;10.21;100.00
3142;BME280;1581;51.568;6.998;2023-02-21T12:52:25;101204.66;;;10.49;100.00
3142;BME280;1581;51.568;6.998;2023-02-21T12:55:00;101197.09;;;10.60;100.00
3142;BME280;1581;51.568;6.998;2023-02-21T12:57:37;101204.19;;;10.45;100.00
3142;BME280;1581;51.568;6.998;2023-02-21T13:00:17;101201.97;;;10.57;100.00
3142;BME280;1581;51.568;6.998;2023-02-21T13:02:59;101186.66;;;10.73;100.00
3142;BME280;1581;51.568;6.998;2023-02-21T13:05:36;101181.69;;;10.70;100.00
3142;BME280;1581;51.568;6.998;2023-02-21T13:08:14;101182.78;;;10.61;100.00
3142;BME280;1581;51.568;6.998;2023-02-21T13:10:57;101195.66;;;10.95;100.00
3142;BME280;1581;51.568;6.998;2023-02-21T13:13:32;101178.63;;;10.81;100.00
3142;BME280;1581;51.568;6.998;2023-02-21T13:16:01;101172.94;;;10.62;100.00
3142;BME280;1581;51.568;6.998;2023-02-21T13:18:35;101174.41;;;10.64;100.00
3142;BME280;1581;51.568;6.998;2023-02-21T13:21:26;101174.81;;;10.76;100.00
3142;BME280;1581;51.568;6.998;2023-02-21T13:24:00;101171.53;;;10.88;100.00
3142;BME280;1581;51.568;6.998;2023-02-21T13:26:45;101170.88;;;10.49;100.00
3142;BME280;1581;51.568;6.998;2023-02-21T13:29:21;101161.56;;;10.45;100.00
3142;BME280;1581;51.568;6.998;2023-02-21T13:32:00;101157.66;;;10.56;100.00
3142;BME280;1581;51.568;6.998;2023-02-21T13:34:35;101155.22;;;10.46;100.00
3142;BME280;1581;51.568;6.998;2023-02-21T13:37:07;101148.16;;;10.76;100.00
3142;BME280;1581;51.568;6.998;2023-02-21T13:39:45;101152.72;;;10.67;100.00
3142;BME280;1581;51.568;6.998;2023-02-21T13:42:18;101153.06;;;10.64;100.00
3142;BME280;1581;51.568;6.998;2023-02-21T13:44:49;101157.63;;;10.78;100.00
3142;BME280;1581;51.568;6.998;2023-02-21T13:47:20;101149.34;;;10.73;100.00
3142;BME280;1581;51.568;6.998;2023-02-21T13:49:56;101157.16;;;10.30;100.00
3142;BME280;1581;51.568;6.998;2023-02-21T13:53:02;101153.22;;;10.48;100.00
3142;BME280;1581;51.568;6.998;2023-02-21T13:55:50;101149.91;;;10.83;100.00
3142;BME280;1581;51.568;6.998;2023-02-21T13:58:39;101139.31;;;10.98;100.00
3142;BME280;1581;51.568;6.998;2023-02-21T14:01:43;101141.53;;;10.72;100.00
3142;BME280;1581;51.568;6.998;2023-02-21T14:04:59;101144.00;;;10.73;100.00
3142;BME280;1581;51.568;6.998;2023-02-21T14:10:37;101139.78;;;11.01;100.00